Quick Links (Output Below):   Max & Min Temps   /   Climate Reports   /   Zone Forecasts
River Forecasts   /   Forestry Forecasts   /   Aviation Forecasts   /   Radars   /   Features

Terminal Aerodrome Forecast (Mountain Home)

Pick a Site:
Arkadelphia | El Dorado | Fayetteville | Fort Smith | Harrison | Highfill | Hot Springs | Jonesboro
Little Rock | Monticello | Mountain Home | Pine Bluff | Texarkana
 Forecast 

KBPK 261120Z 2612/2712 19004KT P6SM SCT050 BKN100
     FM261400 22006KT P6SM BKN050
     FM262000 24006KT P6SM VCTS BKN040CB BKN080
     FM270200 VRB03KT P6SM VCSH SCT040 BKN100
      TEMPO 2709/2712 4SM BR=


 Latest METARs (Observations) 
How to Decode METARs
13Z KBPK 261253Z AUTO 22003KT 9SM FEW055 26/23 A3012 RMK AO2 SLP187
         T02610228
         
12Z KBPK 261153Z AUTO 00000KT 8SM SCT060 BKN110 23/22 A3011 RMK AO2
         SLP183 60021 70021 T02330222 10256 20233 51013
         
11Z KBPK 261053Z AUTO 00000KT 9SM OVC110 24/22 A3009 RMK AO2 SLP178
         T02390222
         
10Z KBPK 260953Z AUTO 00000KT 8SM FEW055 OVC110 24/23 A3009 RMK AO2
         SLP176 T02390233
         
09Z KBPK 260853Z AUTO 00000KT 8SM OVC100 24/23 A3007 RMK AO2 SLP169
         60021 T02390233 53001
         
08Z KBPK 260753Z AUTO 11004KT 9SM BKN055 OVC095 24/23 A3006 RMK AO2
         RAE00 TSB08E23 SLP168 P0000 T02440228
         
07Z KBPK 260653Z AUTO 13006KT 7SM -RA SCT042 BKN050 OVC065 24/23 A3006
         RMK AO2 RAB30 SLP168 P0021 T02440228
         
06Z KBPK 260553Z AUTO 17004KT 10SM SCT070 BKN090 26/21 A3006 RMK AO2
         SLP168 T02560211 10300 20250 403220239 53008
         
05Z KBPK 260453Z AUTO 17003KT 10SM CLR 25/22 A3005 RMK AO2 SLP165
         T02500217
         
04Z KBPK 260353Z AUTO 00000KT 10SM CLR 27/21 A3004 RMK AO2 SLP161
         T02670211
         
***** Today's Observations (Above) *****


Back to Main Page
http://www.srh.noaa.gov/lzk/qfcst.php

USA.gov is the U.S. government's official web portal to all federal, state and local government web resources and services.